Bellefonte, Kentucky
Current Conditions -  °F | °C
As of 9:15 AM on Saturday 20 Dec 2014 (Local Time) from KDWU Reporting Station
Broken Clouds Broken Clouds  
Wind Chill: 32°   Ceiling: 8000
Heat Index: 32°   Visibility: 10mi
Dew Point: 21°   Wind: 3mph
Humidity: 64%   Direction: 40°NE
Pressure: 30.27"   Gusts: NA
Location:  38.4744°N, 82.6532°W
Report Text: KDWU 201415Z AUTO 04003KT 10SM FEW050 SCT060 BKN080 00/M06 A3027 RMK AO1
Loading
Personal Weather Stations






























Interactive Weather Map New forecast layout! Learn more

10-Day Weather Forecast

Advertisements
Track Severe Weather on mobile